Terminal Aerodrome Forecast
Issued by NWS

Home | Current Version | Previous Version | Text Only | Print | Product List | Glossary On
Versions: 1 2 3 4 5 6 7 8 9 10 11 12 13
000
FTAK31 PANC 250540
TAFAHO
TAF
PAHO 250540Z 2506/2606 26005KT P6SM BKN045
     FM251400 22004KT P6SM BKN025
     FM252000 23010KT P6SM SCT025 BKN045=

USA.gov is the U.S. government's official web portal to all federal, state and local government web resources and services.